Time;durP1;ratioP1;P1;durP2;ratioP2;P2;SDS_P1;SDS_P2;PMS_P1;PMS_P2;Temp;Humidity;BMP_temperature;BMP_pressure;BME280_temperature;BME280_humidity;BME280_pressure;Samples;Min_cycle;Max_cycle;Signal;HPM_P1;HPM_P2
2021/03/18 00:00:39;;;;;;;10.50;6.35;;;-0.10;99.90;;;;;;5093844;28;20020;-65
2021/03/18 00:03:05;;;;;;;11.23;6.18;;;-0.10;99.90;;;;;;5090231;28;20880;-63
2021/03/18 00:05:31;;;;;;;16.65;7.55;;;-0.10;99.90;;;;;;5093697;28;20063;-64
2021/03/18 00:07:57;;;;;;;13.18;7.30;;;-0.10;99.90;;;;;;5074658;28;20376;-64
2021/03/18 00:10:22;;;;;;;9.82;6.18;;;-0.10;99.90;;;;;;5095886;28;20150;-65
2021/03/18 00:12:48;;;;;;;11.18;6.85;;;0.00;99.90;;;;;;5093314;28;20522;-67
2021/03/18 00:15:14;;;;;;;11.35;6.80;;;0.00;99.90;;;;;;5092659;28;20054;-62
2021/03/18 00:17:40;;;;;;;9.70;6.10;;;0.00;99.90;;;;;;5075353;28;20039;-65
2021/03/18 00:20:09;;;;;;;12.40;6.75;;;0.00;99.90;;;;;;5094690;28;20154;-63
2021/03/18 00:22:43;;;;;;;11.18;6.78;;;0.00;99.90;;;;;;5093135;28;20401;-65
2021/03/18 00:25:11;;;;;;;10.07;5.43;;;0.00;99.90;;;;;;5090319;28;20107;-66
2021/03/18 00:27:38;;;;;;;10.13;5.72;;;0.00;99.90;;;;;;5093440;28;20043;-63
2021/03/18 00:30:07;;;;;;;9.00;5.70;;;0.00;99.90;;;;;;5096974;28;20031;-63
2021/03/18 00:32:34;;;;;;;10.98;6.15;;;0.00;99.90;;;;;;5092975;28;20174;-65
2021/03/18 00:35:00;;;;;;;8.38;6.10;;;0.00;99.90;;;;;;5091941;28;20028;-64
2021/03/18 00:37:25;;;;;;;11.90;5.80;;;0.10;99.90;;;;;;5072105;28;20484;-65
2021/03/18 00:39:54;;;;;;;8.10;5.28;;;0.00;99.90;;;;;;5092473;28;20046;-67
2021/03/18 00:42:19;;;;;;;9.57;6.03;;;0.10;99.90;;;;;;5092866;28;20050;-61
2021/03/18 00:44:45;;;;;;;9.23;5.90;;;0.10;99.90;;;;;;5092045;28;20028;-63
2021/03/18 00:47:10;;;;;;;9.52;5.50;;;0.10;99.90;;;;;;5091875;28;20600;-59
2021/03/18 00:49:36;;;;;;;10.98;5.50;;;0.20;99.90;;;;;;5094802;28;20509;-60
2021/03/18 00:52:02;;;;;;;9.88;4.95;;;0.20;99.90;;;;;;5091561;28;20024;-64
2021/03/18 00:54:28;;;;;;;10.70;5.30;;;0.30;99.90;;;;;;5092960;28;20077;-64
2021/03/18 00:56:54;;;;;;;7.07;4.82;;;0.30;99.90;;;;;;5095657;28;20075;-64
2021/03/18 00:59:19;;;;;;;8.45;5.03;;;0.20;99.90;;;;;;5074823;28;20102;-64
2021/03/18 01:01:45;;;;;;;9.00;5.15;;;0.30;99.90;;;;;;5093828;28;20505;-61
2021/03/18 01:04:10;;;;;;;9.60;4.80;;;0.30;99.90;;;;;;5094462;28;20024;-63
2021/03/18 01:06:37;;;;;;;10.68;5.18;;;0.30;99.90;;;;;;5095078;28;20036;-67
2021/03/18 01:09:04;;;;;;;11.23;5.55;;;0.30;99.90;;;;;;5091443;28;20028;-62
2021/03/18 01:11:33;;;;;;;10.23;5.15;;;0.30;99.90;;;;;;5092668;28;20028;-64
2021/03/18 01:14:09;;;;;;;8.85;4.57;;;0.30;99.90;;;;;;5092194;28;20020;-65
2021/03/18 01:16:44;;;;;;;7.30;4.28;;;0.30;99.90;;;;;;5090958;28;20028;-64
2021/03/18 01:19:10;;;;;;;10.38;4.85;;;0.20;99.90;;;;;;5089426;28;20024;-64
2021/03/18 01:21:41;;;;;;;10.10;4.57;;;0.20;99.90;;;;;;5094236;28;20042;-66
2021/03/18 01:24:08;;;;;;;8.60;3.70;;;0.20;99.90;;;;;;5088780;28;20120;-63
2021/03/18 01:26:34;;;;;;;8.15;5.30;;;0.20;99.90;;;;;;5092282;28;20036;-63
2021/03/18 01:29:00;;;;;;;9.70;4.22;;;0.20;99.90;;;;;;5091669;28;20056;-61
2021/03/18 01:31:26;;;;;;;10.18;5.40;;;0.20;99.90;;;;;;5089872;28;20492;-61
2021/03/18 01:33:52;;;;;;;11.45;5.05;;;0.20;99.90;;;;;;5091020;28;20077;-67
2021/03/18 01:36:18;;;;;;;6.20;4.47;;;0.20;99.90;;;;;;5092117;28;20031;-63
2021/03/18 01:38:45;;;;;;;10.68;4.80;;;0.20;99.90;;;;;;5091404;28;20385;-60
2021/03/18 01:41:11;;;;;;;7.32;4.80;;;0.20;99.90;;;;;;5092084;28;20168;-64
2021/03/18 01:43:37;;;;;;;12.15;5.18;;;0.20;99.90;;;;;;5091408;28;20024;-63
2021/03/18 01:46:04;;;;;;;10.77;5.10;;;0.20;99.90;;;;;;5090933;28;20024;-64
2021/03/18 01:48:30;;;;;;;11.65;4.93;;;0.20;99.90;;;;;;5091585;28;20051;-64
2021/03/18 01:50:57;;;;;;;10.32;5.10;;;0.20;99.90;;;;;;5093253;28;20393;-60
2021/03/18 01:53:24;;;;;;;13.30;5.25;;;0.20;99.90;;;;;;5091603;28;20028;-63
2021/03/18 01:55:52;;;;;;;12.05;5.03;;;0.20;99.90;;;;;;5094147;28;20040;-67
2021/03/18 01:58:18;;;;;;;10.77;5.63;;;0.20;99.90;;;;;;5091416;28;20032;-65
2021/03/18 02:00:47;;;;;;;9.50;5.13;;;0.20;99.90;;;;;;5091777;28;20028;-64
2021/03/18 02:03:13;;;;;;;9.27;4.67;;;0.20;99.90;;;;;;5093755;28;20028;-64
2021/03/18 02:05:42;;;;;;;10.65;5.75;;;0.20;99.90;;;;;;5091494;28;20056;-65
2021/03/18 02:08:08;;;;;;;8.95;4.95;;;0.20;99.90;;;;;;5088159;28;20099;-63
2021/03/18 02:10:37;;;;;;;10.32;5.18;;;0.20;99.90;;;;;;5093274;28;20089;-62
2021/03/18 02:13:04;;;;;;;8.38;4.65;;;0.20;99.90;;;;;;5090716;28;20065;-64
2021/03/18 02:15:38;;;;;;;9.65;4.68;;;0.20;99.90;;;;;;5090865;28;20111;-64
2021/03/18 02:18:07;;;;;;;6.97;4.60;;;0.20;99.90;;;;;;5089497;28;20055;-66
2021/03/18 02:21:14;;;;;;;9.05;4.75;;;0.20;99.90;;;;;;5091323;28;20035;-60
2021/03/18 02:24:17;;;;;;;7.75;4.88;;;0.20;99.90;;;;;;5090532;28;20350;-64
2021/03/18 02:27:02;;;;;;;8.15;4.43;;;0.20;99.90;;;;;;5090273;28;20028;-63
2021/03/18 02:29:30;;;;;;;6.75;4.00;;;0.20;99.90;;;;;;5070516;28;20469;-66
2021/03/18 02:32:17;;;;;;;6.75;4.38;;;0.20;99.90;;;;;;5091015;28;20076;-62
2021/03/18 02:35:23;;;;;;;7.95;3.70;;;0.20;99.90;;;;;;5090595;28;20028;-66
2021/03/18 02:38:09;;;;;;;6.22;3.80;;;0.20;99.90;;;;;;5089970;28;20032;-67
2021/03/18 02:40:50;;;;;;;5.05;3.90;;;0.20;99.90;;;;;;5090377;28;20032;-62
2021/03/18 02:43:19;;;;;;;8.98;3.95;;;0.20;99.90;;;;;;5089375;28;20058;-66
2021/03/18 02:45:54;;;;;;;7.30;3.65;;;0.20;99.90;;;;;;5090524;28;20092;-63
2021/03/18 02:48:36;;;;;;;8.50;4.18;;;0.20;99.90;;;;;;5091995;28;20025;-65
2021/03/18 02:51:03;;;;;;;6.35;3.45;;;0.20;99.90;;;;;;5071416;28;20051;-62
2021/03/18 02:53:32;;;;;;;5.32;3.70;;;0.30;99.90;;;;;;5090384;28;20028;-65
2021/03/18 02:56:02;;;;;;;10.07;3.45;;;0.20;99.90;;;;;;5090852;28;20044;-62
2021/03/18 02:58:32;;;;;;;5.80;3.38;;;0.30;99.90;;;;;;5088306;28;20196;-65
2021/03/18 03:00:59;;;;;;;7.93;4.40;;;0.30;99.90;;;;;;5089804;28;20031;-65
2021/03/18 03:03:26;;;;;;;7.15;3.58;;;0.30;99.90;;;;;;5091819;28;20036;-62
2021/03/18 03:05:54;;;;;;;9.75;3.35;;;0.20;99.90;;;;;;5089804;28;20032;-66
2021/03/18 03:08:24;;;;;;;9.48;3.25;;;0.30;99.90;;;;;;5090982;28;20107;-65
2021/03/18 03:10:53;;;;;;;4.95;3.30;;;0.20;99.90;;;;;;5089620;28;20024;-67
2021/03/18 03:13:20;;;;;;;9.48;3.47;;;0.20;99.90;;;;;;5090106;28;20489;-67
2021/03/18 03:15:48;;;;;;;7.25;3.72;;;0.20;99.90;;;;;;5092425;28;20107;-64
2021/03/18 03:18:14;;;;;;;7.03;3.70;;;0.30;99.90;;;;;;5072085;28;20483;-65
2021/03/18 03:20:41;;;;;;;6.50;3.28;;;0.30;99.90;;;;;;5090411;28;20024;-65
2021/03/18 03:23:08;;;;;;;9.00;3.45;;;0.30;99.90;;;;;;5068813;28;20103;-61
2021/03/18 03:25:37;;;;;;;8.15;3.97;;;0.30;99.90;;;;;;5090739;28;20031;-62
2021/03/18 03:28:05;;;;;;;8.52;4.05;;;0.30;99.90;;;;;;5089232;28;20032;-64
2021/03/18 03:30:31;;;;;;;5.60;3.13;;;0.40;99.90;;;;;;5094609;28;20020;-62
2021/03/18 03:32:57;;;;;;;10.25;3.50;;;0.40;99.90;;;;;;5095022;28;20029;-59
2021/03/18 03:35:23;;;;;;;6.82;3.70;;;0.40;99.90;;;;;;5094533;28;20466;-65
2021/03/18 03:37:49;;;;;;;11.88;3.47;;;0.40;99.90;;;;;;5094237;28;20116;-67
2021/03/18 03:40:18;;;;;;;13.68;3.38;;;0.40;99.90;;;;;;5094228;28;20046;-63
2021/03/18 03:42:44;;;;;;;7.67;3.63;;;0.40;99.90;;;;;;5094888;28;20020;-63
2021/03/18 03:45:13;;;;;;;6.82;3.33;;;0.40;99.90;;;;;;5092998;28;20766;-65
2021/03/18 03:47:39;;;;;;;9.95;4.13;;;0.40;99.90;;;;;;5094127;28;20069;-65
2021/03/18 03:50:07;;;;;;;7.78;3.40;;;0.40;99.90;;;;;;5093094;28;20111;-63
2021/03/18 03:52:37;;;;;;;6.80;3.80;;;0.40;99.90;;;;;;5094117;28;20059;-60
2021/03/18 03:55:05;;;;;;;;;;;0.40;99.90;;;;;;5093216;28;20028;-64
2021/03/18 03:57:38;;;;;;;5.32;3.15;;;0.40;99.90;;;;;;5093187;28;19924;-61
2021/03/18 04:00:07;;;;;;;5.50;3.20;;;0.50;99.90;;;;;;5093425;28;20019;-65
2021/03/18 04:02:35;;;;;;;5.63;3.23;;;0.50;99.90;;;;;;5094209;28;20052;-59
2021/03/18 04:05:02;;;;;;;9.35;3.45;;;0.60;99.90;;;;;;5094217;28;20071;-66
2021/03/18 04:07:32;;;;;;;8.10;3.35;;;0.60;99.90;;;;;;5076890;28;20024;-63
2021/03/18 04:09:59;;;;;;;9.68;3.85;;;0.60;99.90;;;;;;5094488;28;20054;-61
2021/03/18 04:12:34;;;;;;;7.88;3.38;;;0.50;99.90;;;;;;5095793;28;20030;-63
2021/03/18 04:15:12;;;;;;;6.05;3.03;;;0.50;99.90;;;;;;5094020;28;20020;-63
2021/03/18 04:17:41;;;;;;;7.68;3.53;;;0.50;99.90;;;;;;5076947;28;20039;-62
2021/03/18 04:20:10;;;;;;;9.73;3.57;;;0.40;99.90;;;;;;5094092;28;20476;-63
2021/03/18 04:22:36;;;;;;;10.48;3.30;;;0.40;99.90;;;;;;5108662;28;20266;-65
2021/03/18 04:25:05;;;;;;;10.07;3.50;;;0.40;99.90;;;;;;5096123;28;20126;-60
2021/03/18 04:27:31;;;;;;;6.75;3.53;;;0.40;99.90;;;;;;5114737;28;20039;-66
2021/03/18 04:29:58;;;;;;;9.70;3.75;;;0.40;99.90;;;;;;5114426;28;20027;-61
2021/03/18 04:32:24;;;;;;;6.70;3.60;;;0.40;99.90;;;;;;5102137;28;20031;-64
2021/03/18 04:34:54;;;;;;;7.53;3.55;;;0.40;99.90;;;;;;5094545;28;20043;-65
2021/03/18 04:37:20;;;;;;;7.30;3.83;;;0.50;99.90;;;;;;5094317;28;20039;-64
2021/03/18 04:39:47;;;;;;;8.15;3.63;;;0.50;99.90;;;;;;5094129;28;20024;-63
2021/03/18 04:42:14;;;;;;;7.10;3.10;;;0.50;99.90;;;;;;5094573;28;20456;-63
2021/03/18 04:44:43;;;;;;;7.60;3.50;;;0.40;99.90;;;;;;5093795;28;20024;-64
2021/03/18 04:47:09;;;;;;;12.85;3.75;;;0.50;99.90;;;;;;5090605;28;20473;-63
2021/03/18 04:49:36;;;;;;;8.57;4.10;;;0.50;99.90;;;;;;5094437;28;20495;-63
2021/03/18 04:52:02;;;;;;;7.50;3.35;;;0.50;99.90;;;;;;5086083;28;20028;-63
2021/03/18 04:54:28;;;;;;;7.78;3.88;;;0.50;99.90;;;;;;5094242;28;20024;-63
2021/03/18 04:56:56;;;;;;;11.52;3.78;;;0.50;99.90;;;;;;5093053;28;20062;-65
2021/03/18 04:59:22;;;;;;;8.35;3.60;;;0.40;99.90;;;;;;5093900;28;20036;-67
2021/03/18 05:01:50;;;;;;;10.93;3.33;;;0.50;99.90;;;;;;5100348;28;20032;-66
2021/03/18 05:04:18;;;;;;;6.03;4.00;;;0.40;99.90;;;;;;5113837;28;20026;-63
2021/03/18 05:06:53;;;;;;;8.70;3.53;;;0.40;99.90;;;;;;5113975;28;20075;-63
2021/03/18 05:09:20;;;;;;;8.40;3.20;;;0.40;99.90;;;;;;5114202;28;20152;-63
2021/03/18 05:11:47;;;;;;;7.30;3.92;;;0.40;99.90;;;;;;5111630;28;20024;-60
2021/03/18 05:14:13;;;;;;;5.28;3.40;;;0.40;99.90;;;;;;5105530;28;20020;-66
2021/03/18 05:16:39;;;;;;;7.68;4.18;;;0.40;99.90;;;;;;5093645;28;20036;-64
2021/03/18 05:19:09;;;;;;;10.63;3.67;;;0.40;99.90;;;;;;5103295;28;20110;-63
2021/03/18 05:21:37;;;;;;;5.07;3.42;;;0.40;99.90;;;;;;5113984;28;20019;-63
2021/03/18 05:24:05;;;;;;;5.20;3.75;;;0.30;99.90;;;;;;5094944;28;20460;-63
2021/03/18 05:26:30;;;;;;;7.85;4.18;;;0.30;99.90;;;;;;5103314;28;20059;-64
2021/03/18 05:28:56;;;;;;;9.18;4.05;;;0.30;99.90;;;;;;5074478;28;20058;-62
2021/03/18 05:31:23;;;;;;;6.72;4.13;;;0.30;99.90;;;;;;5098273;28;20031;-64
2021/03/18 05:33:50;;;;;;;10.45;3.92;;;0.30;99.90;;;;;;5095683;28;20051;-63
2021/03/18 05:36:15;;;;;;;6.35;3.58;;;0.30;99.90;;;;;;5113097;28;20088;-61
2021/03/18 05:38:41;;;;;;;9.15;4.20;;;0.30;99.90;;;;;;5102661;28;20111;-63
2021/03/18 05:41:06;;;;;;;9.45;4.68;;;0.30;99.90;;;;;;5092299;28;20024;-63
2021/03/18 05:43:32;;;;;;;8.48;4.20;;;0.30;99.90;;;;;;5092711;28;20024;-63
2021/03/18 05:45:58;;;;;;;11.23;5.22;;;0.40;99.90;;;;;;5091977;28;20031;-62
2021/03/18 05:48:24;;;;;;;7.78;4.20;;;0.40;99.90;;;;;;5093088;28;20098;-63
2021/03/18 05:50:51;;;;;;;9.18;4.00;;;0.40;99.90;;;;;;5095892;28;20364;-61
2021/03/18 05:53:21;;;;;;;11.80;3.63;;;0.40;99.90;;;;;;5103906;28;20024;-57
2021/03/18 05:55:47;;;;;;;8.65;4.22;;;0.40;99.90;;;;;;5092766;28;20052;-62
2021/03/18 05:58:15;;;;;;;7.03;4.00;;;0.40;99.90;;;;;;5097828;28;20202;-62
2021/03/18 06:00:41;;;;;;;10.18;4.22;;;0.40;99.90;;;;;;5113017;28;20035;-60
2021/03/18 06:03:07;;;;;;;9.25;4.38;;;0.50;99.90;;;;;;5093661;28;20061;-62
2021/03/18 06:05:33;;;;;;;8.77;4.20;;;0.50;99.90;;;;;;5113237;28;20020;-65
2021/03/18 06:07:59;;;;;;;7.90;4.07;;;0.60;99.90;;;;;;5108018;28;20052;-60
2021/03/18 06:10:26;;;;;;;9.18;3.70;;;0.60;99.90;;;;;;5092806;28;20066;-64
2021/03/18 06:12:55;;;;;;;7.72;3.97;;;0.60;99.90;;;;;;5092346;28;20031;-62
2021/03/18 06:15:21;;;;;;;6.60;4.10;;;0.70;99.90;;;;;;5103558;28;20039;-60
2021/03/18 06:17:48;;;;;;;6.00;3.60;;;0.80;99.90;;;;;;5112865;28;20410;-66
2021/03/18 06:20:20;;;;;;;10.48;4.90;;;0.80;99.90;;;;;;5106743;28;20884;-61
2021/03/18 06:22:48;;;;;;;7.57;3.63;;;0.90;99.90;;;;;;5092628;28;20020;-61
2021/03/18 06:25:27;;;;;;;7.05;3.53;;;0.90;99.90;;;;;;5109124;28;20495;-62
2021/03/18 06:28:13;;;;;;;12.60;4.37;;;1.00;99.90;;;;;;5112945;28;20042;-63
2021/03/18 06:30:41;;;;;;;11.40;4.25;;;1.10;98.20;;;;;;5104078;28;20765;-65
2021/03/18 06:33:21;;;;;;;11.73;3.88;;;1.20;99.00;;;;;;5091439;28;20024;-64
2021/03/18 06:35:46;;;;;;;;;;;1.20;99.30;;;;;;5092392;28;20075;-64
2021/03/18 06:38:12;;;;;;;7.95;4.20;;;1.20;98.90;;;;;;5082882;28;19916;-64
2021/03/18 06:40:46;;;;;;;10.68;4.13;;;1.20;99.80;;;;;;5079469;28;20028;-63
2021/03/18 06:43:12;;;;;;;10.05;3.95;;;1.40;98.00;;;;;;5091680;28;20056;-61
2021/03/18 06:45:41;;;;;;;9.63;4.75;;;1.50;98.40;;;;;;5091770;28;20088;-63
2021/03/18 06:48:09;;;;;;;8.63;3.75;;;1.60;98.30;;;;;;5098890;28;20028;-63
2021/03/18 06:50:40;;;;;;;10.85;4.30;;;1.70;97.10;;;;;;5112119;28;20102;-63
2021/03/18 06:53:36;;;;;;;10.57;4.85;;;1.80;96.40;;;;;;5111706;28;20486;-63
2021/03/18 06:56:02;;;;;;;14.73;4.13;;;1.90;94.40;;;;;;5093063;28;20043;-63
2021/03/18 06:58:29;;;;;;;9.65;4.20;;;2.00;93.40;;;;;;5112712;28;20036;-61
2021/03/18 07:00:56;;;;;;;8.48;4.13;;;2.10;94.10;;;;;;5109374;28;20369;-62
2021/03/18 07:03:33;;;;;;;8.40;4.25;;;2.10;93.90;;;;;;5070615;28;20056;-63
2021/03/18 07:06:02;;;;;;;8.82;4.95;;;2.10;94.00;;;;;;5071057;28;20423;-63
2021/03/18 07:08:29;;;;;;;9.18;4.55;;;2.20;93.40;;;;;;5090208;28;20020;-61
2021/03/18 07:10:56;;;;;;;7.35;3.70;;;2.30;93.40;;;;;;5092461;28;20065;-62
2021/03/18 07:13:42;;;;;;;7.93;4.40;;;2.40;91.90;;;;;;5090966;28;20123;-63
2021/03/18 07:16:09;;;;;;;9.43;4.45;;;2.50;91.50;;;;;;5070847;28;20033;-62
2021/03/18 07:18:36;;;;;;;8.32;4.13;;;2.60;90.50;;;;;;5081000;28;20032;-63
2021/03/18 07:21:07;;;;;;;8.73;4.63;;;2.60;91.00;;;;;;5091810;28;20036;-63
2021/03/18 07:23:53;;;;;;;11.55;4.95;;;2.60;90.50;;;;;;5091765;28;20031;-63
2021/03/18 07:26:24;;;;;;;11.25;4.80;;;2.60;90.60;;;;;;5090019;28;20661;-62
2021/03/18 07:28:52;;;;;;;12.27;4.60;;;2.70;91.30;;;;;;5100990;28;20028;-62
2021/03/18 07:31:19;;;;;;;10.82;4.40;;;2.70;91.20;;;;;;5091472;28;20032;-63
2021/03/18 07:33:46;;;;;;;6.80;4.25;;;2.80;91.20;;;;;;5091591;28;20035;-62
2021/03/18 07:36:13;;;;;;;9.07;4.07;;;2.80;91.10;;;;;;5081029;28;20430;-63
2021/03/18 07:38:40;;;;;;;11.45;5.80;;;2.90;90.30;;;;;;5075923;28;20028;-63
2021/03/18 07:41:12;;;;;;;8.10;3.92;;;3.10;93.10;;;;;;5090810;28;20020;-63
2021/03/18 07:43:41;;;;;;;7.38;4.43;;;3.20;91.80;;;;;;5093799;28;20032;-63
2021/03/18 07:46:07;;;;;;;9.60;4.38;;;3.30;90.90;;;;;;5090438;28;20024;-63
2021/03/18 07:48:33;;;;;;;9.13;4.10;;;3.40;88.30;;;;;;5091265;28;20024;-62
2021/03/18 07:51:01;;;;;;;11.43;4.63;;;3.50;88.20;;;;;;5091184;28;20533;-65
2021/03/18 07:53:29;;;;;;;8.00;4.80;;;3.60;88.50;;;;;;5091589;28;20032;-62
2021/03/18 07:55:55;;;;;;;9.13;5.15;;;3.60;87.30;;;;;;5091721;28;20504;-63
2021/03/18 07:58:38;;;;;;;9.35;4.95;;;3.60;86.10;;;;;;5090495;28;20032;-63
2021/03/18 08:01:04;;;;;;;9.73;5.10;;;3.60;85.40;;;;;;5097269;28;20023;-63
2021/03/18 08:03:31;;;;;;;10.77;5.47;;;3.60;86.60;;;;;;5109795;28;20154;-62
2021/03/18 08:05:58;;;;;;;10.20;4.82;;;3.60;85.70;;;;;;5092176;28;20055;-62
2021/03/18 08:08:33;;;;;;;9.10;5.85;;;3.50;85.60;;;;;;5091848;28;20039;-63
2021/03/18 08:11:17;;;;;;;10.40;4.97;;;3.50;86.50;;;;;;5091933;28;20373;-65
2021/03/18 08:13:44;;;;;;;9.35;5.53;;;3.60;84.40;;;;;;5091298;28;20077;-61
2021/03/18 08:16:32;;;;;;;9.05;5.25;;;3.60;85.40;;;;;;5092225;28;20365;-61
2021/03/18 08:18:58;;;;;;;13.00;5.55;;;3.60;83.70;;;;;;5113072;28;20055;-63
2021/03/18 08:21:36;;;;;;;9.23;5.32;;;3.70;83.80;;;;;;5094453;28;20042;-62
2021/03/18 08:24:03;;;;;;;10.88;6.07;;;3.60;84.10;;;;;;5099209;28;20480;-66
2021/03/18 08:26:51;;;;;;;8.77;5.65;;;3.60;83.10;;;;;;5085998;28;20040;-63
2021/03/18 08:29:21;;;;;;;11.77;5.43;;;3.60;83.80;;;;;;5093952;28;20039;-59
2021/03/18 08:31:47;;;;;;;;;;;3.60;84.10;;;;;;5096032;28;20105;-62
2021/03/18 08:34:13;;;;;;;10.13;5.65;;;3.60;82.90;;;;;;5110728;28;20336;-62
2021/03/18 08:36:54;;;;;;;10.68;5.68;;;3.60;82.50;;;;;;5110906;28;20028;-57
2021/03/18 08:39:49;;;;;;;12.57;5.75;;;3.50;83.70;;;;;;5093447;28;20046;-61
2021/03/18 08:42:32;;;;;;;11.07;5.78;;;3.60;82.50;;;;;;5095745;28;20024;-62
2021/03/18 08:45:00;;;;;;;12.63;6.88;;;3.60;81.60;;;;;;5113725;28;20035;-62
2021/03/18 08:47:36;;;;;;;14.15;6.10;;;3.60;81.50;;;;;;5094863;28;20039;-62
2021/03/18 08:50:04;;;;;;;8.27;6.00;;;3.70;81.20;;;;;;5093259;28;20154;-65
2021/03/18 08:52:43;;;;;;;12.05;6.43;;;3.90;79.90;;;;;;5094227;28;20085;-62
2021/03/18 08:55:13;;;;;;;12.93;6.40;;;4.10;81.30;;;;;;5084315;28;20043;-63
2021/03/18 08:57:40;;;;;;;13.20;6.45;;;4.20;78.90;;;;;;5094048;28;20056;-58
2021/03/18 09:00:12;;;;;;;10.45;6.80;;;4.40;77.50;;;;;;5072695;28;20032;-62
2021/03/18 09:02:38;;;;;;;13.82;6.40;;;4.40;76.80;;;;;;5073736;28;20028;-62
2021/03/18 09:05:14;;;;;;;9.02;5.63;;;4.40;75.90;;;;;;5086127;28;20134;-63
2021/03/18 09:07:42;;;;;;;12.02;6.13;;;4.40;76.80;;;;;;5104792;28;20503;-62
2021/03/18 09:10:21;;;;;;;11.60;5.97;;;4.40;77.10;;;;;;5112989;28;20022;-62
2021/03/18 09:12:54;;;;;;;12.27;6.40;;;4.50;76.80;;;;;;5114044;28;20031;-62
2021/03/18 09:15:36;;;;;;;10.68;6.72;;;4.60;76.30;;;;;;5111475;28;20558;-62
2021/03/18 09:18:11;;;;;;;13.68;5.95;;;4.50;76.10;;;;;;5113789;28;20049;-65
2021/03/18 09:20:38;;;;;;;10.23;6.20;;;4.40;76.70;;;;;;5099559;28;20067;-65
2021/03/18 09:23:21;;;;;;;13.63;7.18;;;4.50;77.10;;;;;;5083269;28;20140;-62
2021/03/18 09:25:49;;;;;;;11.70;6.35;;;4.50;75.80;;;;;;5076992;28;20107;-61
2021/03/18 09:28:15;;;;;;;14.23;6.57;;;4.50;76.20;;;;;;5093162;28;20089;-63
2021/03/18 09:30:45;;;;;;;10.05;5.65;;;4.40;75.40;;;;;;5109582;28;20427;-62
2021/03/18 09:33:22;;;;;;;11.65;6.05;;;4.30;77.00;;;;;;5092487;28;20102;-62
2021/03/18 09:35:51;;;;;;;15.15;6.45;;;4.30;78.60;;;;;;5093275;28;20039;-63
2021/03/18 09:38:26;;;;;;;11.38;6.22;;;4.30;78.10;;;;;;5103422;28;20549;-62
2021/03/18 09:40:53;;;;;;;12.98;6.35;;;4.40;76.80;;;;;;5113603;28;20031;-63
2021/03/18 09:43:21;;;;;;;12.45;6.30;;;4.50;75.50;;;;;;5111418;28;20042;-62
2021/03/18 09:45:51;;;;;;;9.00;5.93;;;4.60;75.40;;;;;;5109479;28;20016;-62
2021/03/18 09:48:35;;;;;;;13.10;6.18;;;4.70;75.70;;;;;;5110883;28;20032;-62
2021/03/18 09:51:07;;;;;;;8.90;5.95;;;4.90;75.40;;;;;;5113291;28;20023;-63
2021/03/18 09:53:33;;;;;;;7.88;5.38;;;5.20;72.80;;;;;;5113842;28;20031;-62
2021/03/18 09:56:13;;;;;;;8.98;4.97;;;5.50;69.70;;;;;;5112679;28;20419;-60
2021/03/18 09:58:40;;;;;;;10.07;4.57;;;5.50;69.70;;;;;;5074125;28;20174;-62
2021/03/18 10:01:24;;;;;;;9.10;5.00;;;5.70;69.80;;;;;;5071341;28;20032;-65
2021/03/18 10:04:04;;;;;;;12.70;4.35;;;6.20;69.80;;;;;;5091309;28;20061;-62
2021/03/18 10:06:54;;;;;;;9.73;4.82;;;6.50;67.40;;;;;;5091873;28;20103;-63
2021/03/18 10:09:24;;;;;;;7.65;4.55;;;7.00;65.80;;;;;;5091798;28;20362;-62
2021/03/18 10:11:59;;;;;;;10.15;5.15;;;7.30;65.10;;;;;;5093327;28;20049;-60
2021/03/18 10:14:34;;;;;;;9.93;4.90;;;7.40;65.60;;;;;;5091980;28;20103;-63
2021/03/18 10:17:03;;;;;;;8.73;4.40;;;7.40;63.60;;;;;;5092260;28;20526;-61
2021/03/18 10:19:32;;;;;;;14.38;5.25;;;7.40;61.70;;;;;;5091714;28;20027;-61
2021/03/18 10:22:05;;;;;;;11.90;5.57;;;7.10;64.00;;;;;;5111655;28;20055;-61
2021/03/18 10:24:31;;;;;;;8.23;5.18;;;6.80;64.40;;;;;;5098097;28;20042;-61
2021/03/18 10:27:14;;;;;;;12.13;5.25;;;6.40;65.00;;;;;;5092327;28;20103;-62
2021/03/18 10:29:41;;;;;;;11.48;5.28;;;6.10;67.10;;;;;;5072669;28;20461;-62
2021/03/18 10:32:18;;;;;;;10.18;5.43;;;5.70;69.10;;;;;;5109854;28;20434;-64
2021/03/18 10:34:54;;;;;;;10.40;5.53;;;5.40;71.30;;;;;;5096252;28;20497;-62
2021/03/18 10:37:32;;;;;;;5.82;4.78;;;5.30;72.90;;;;;;5072683;28;20028;-62
2021/03/18 10:40:16;;;;;;;10.00;4.60;;;5.20;70.90;;;;;;5092141;28;20484;-62
2021/03/18 10:42:43;;;;;;;12.68;5.22;;;5.20;71.50;;;;;;5092225;28;20046;-62
2021/03/18 10:45:16;;;;;;;9.95;5.18;;;5.10;71.60;;;;;;5091254;28;20028;-62
2021/03/18 10:47:43;;;;;;;9.00;5.32;;;5.10;72.00;;;;;;5092125;28;20027;-62
2021/03/18 10:50:11;;;;;;;10.80;5.00;;;5.10;72.10;;;;;;5091496;28;20028;-62
2021/03/18 10:52:39;;;;;;;8.50;5.15;;;5.10;71.10;;;;;;5100195;28;20052;-62
2021/03/18 10:55:06;;;;;;;8.00;4.82;;;5.20;70.70;;;;;;5091725;28;20081;-65
2021/03/18 10:57:33;;;;;;;6.82;4.22;;;5.40;70.70;;;;;;5091745;28;20406;-62
2021/03/18 10:59:59;;;;;;;8.30;4.43;;;5.50;70.70;;;;;;5073789;28;20028;-63
2021/03/18 11:02:30;;;;;;;7.45;4.43;;;5.50;71.60;;;;;;5091632;28;20654;-62
2021/03/18 11:05:05;;;;;;;7.40;4.53;;;5.70;69.30;;;;;;5091865;28;20024;-62
2021/03/18 11:07:31;;;;;;;6.97;4.10;;;5.90;70.10;;;;;;5090642;28;20028;-62
2021/03/18 11:10:05;;;;;;;9.13;4.53;;;6.00;69.00;;;;;;5091482;28;20430;-62
2021/03/18 11:12:31;;;;;;;8.35;4.20;;;6.20;67.10;;;;;;5106397;28;20058;-61
2021/03/18 11:14:57;;;;;;;10.57;4.63;;;6.30;66.10;;;;;;5091972;28;20032;-63
2021/03/18 11:17:27;;;;;;;6.93;4.38;;;6.30;66.10;;;;;;5092862;28;20042;-62
2021/03/18 11:20:08;;;;;;;;;;;6.50;64.80;;;;;;5112221;28;20361;-64
2021/03/18 11:22:34;;;;;;;10.43;5.00;;;6.50;65.60;;;;;;5083982;28;19915;-62
2021/03/18 11:25:02;;;;;;;8.48;4.25;;;6.70;62.90;;;;;;5110023;28;20035;-63
2021/03/18 11:27:27;;;;;;;11.85;5.05;;;6.80;65.80;;;;;;5091484;28;20040;-63
2021/03/18 11:29:53;;;;;;;9.48;4.68;;;6.90;62.40;;;;;;5083012;28;20025;-62
2021/03/18 11:32:22;;;;;;;7.18;4.05;;;6.90;63.50;;;;;;5071331;28;20329;-62
2021/03/18 11:34:54;;;;;;;5.05;4.28;;;7.10;63.70;;;;;;5071029;28;20378;-62
2021/03/18 11:37:19;;;;;;;4.50;3.55;;;7.20;64.00;;;;;;5079532;28;20040;-62
2021/03/18 11:39:45;;;;;;;6.97;4.10;;;7.40;61.10;;;;;;5091786;28;20028;-62
2021/03/18 11:42:11;;;;;;;6.10;4.07;;;7.60;58.60;;;;;;5072473;28;20021;-63
2021/03/18 11:44:38;;;;;;;7.55;4.20;;;8.00;56.50;;;;;;5102176;28;20462;-62
2021/03/18 11:47:08;;;;;;;7.60;4.25;;;8.30;57.90;;;;;;5093421;28;20024;-62
2021/03/18 11:49:35;;;;;;;8.02;3.97;;;8.40;58.60;;;;;;5074059;28;20054;-62
2021/03/18 11:52:02;;;;;;;5.47;3.40;;;8.50;56.90;;;;;;5095277;28;20423;-62
2021/03/18 11:54:27;;;;;;;6.05;4.25;;;9.00;56.80;;;;;;5095358;28;20206;-62
2021/03/18 11:56:53;;;;;;;7.03;3.80;;;9.50;53.10;;;;;;5095353;28;20481;-62
2021/03/18 11:59:19;;;;;;;7.55;4.03;;;9.80;51.60;;;;;;5094821;28;20377;-62
2021/03/18 12:01:46;;;;;;;6.90;4.05;;;9.90;53.20;;;;;;5094995;28;20024;-63
2021/03/18 12:04:11;;;;;;;5.03;3.75;;;9.70;51.60;;;;;;5094673;28;20142;-62
2021/03/18 12:06:37;;;;;;;6.63;4.07;;;9.30;52.80;;;;;;5094820;28;20035;-62
2021/03/18 12:09:04;;;;;;;5.55;3.90;;;9.00;53.70;;;;;;5101916;28;20030;-62
2021/03/18 12:11:30;;;;;;;5.97;4.00;;;8.60;55.00;;;;;;5113078;28;20123;-62
2021/03/18 12:13:56;;;;;;;10.00;4.25;;;8.20;57.00;;;;;;5115346;28;20386;-62
2021/03/18 12:16:21;;;;;;;5.18;3.80;;;7.90;59.20;;;;;;5112703;28;20032;-62
2021/03/18 12:18:47;;;;;;;7.10;3.55;;;7.60;58.40;;;;;;5115351;28;20068;-62
2021/03/18 12:21:13;;;;;;;5.30;3.80;;;7.40;60.20;;;;;;5114551;28;20460;-62
2021/03/18 12:23:38;;;;;;;8.18;4.60;;;7.30;60.50;;;;;;5115116;28;20066;-62
2021/03/18 12:26:04;;;;;;;10.73;4.18;;;7.20;60.70;;;;;;5107534;28;20026;-62
2021/03/18 12:28:30;;;;;;;5.40;3.47;;;7.20;61.00;;;;;;5093879;28;20028;-63
2021/03/18 12:30:55;;;;;;;4.85;3.38;;;7.20;59.80;;;;;;5076864;28;20074;-62
2021/03/18 12:33:21;;;;;;;8.35;4.22;;;7.10;60.30;;;;;;5093577;28;20074;-62
2021/03/18 12:35:48;;;;;;;6.53;3.67;;;7.20;58.90;;;;;;5109548;28;20028;-61
2021/03/18 12:38:14;;;;;;;6.30;3.63;;;7.20;57.00;;;;;;5097478;28;20465;-62
2021/03/18 12:40:41;;;;;;;10.02;3.97;;;7.20;57.20;;;;;;5111526;28;20024;-60
2021/03/18 12:43:08;;;;;;;9.85;4.32;;;7.20;59.90;;;;;;5107303;28;20020;-61
2021/03/18 12:45:34;;;;;;;9.00;4.60;;;7.00;65.00;;;;;;5099931;28;20024;-61
2021/03/18 12:48:01;;;;;;;8.02;4.35;;;6.60;65.10;;;;;;5091399;28;20028;-62
2021/03/18 12:50:27;;;;;;;6.88;4.43;;;6.30;66.80;;;;;;5097875;28;20684;-62
2021/03/18 12:52:53;;;;;;;11.45;4.05;;;6.20;67.60;;;;;;5096598;28;20028;-61
2021/03/18 12:55:19;;;;;;;9.07;4.68;;;6.00;67.70;;;;;;5096248;28;20031;-60
2021/03/18 12:57:47;;;;;;;7.78;4.50;;;5.90;68.30;;;;;;5101839;28;20056;-61
2021/03/18 13:00:15;;;;;;;9.45;4.28;;;5.80;68.10;;;;;;5109736;28;20015;-65
2021/03/18 13:02:42;;;;;;;6.80;4.10;;;5.80;67.70;;;;;;5111461;28;20023;-61
2021/03/18 13:05:08;;;;;;;11.25;4.43;;;5.90;68.00;;;;;;5110233;28;20038;-60
2021/03/18 13:07:35;;;;;;;6.05;4.13;;;6.10;69.00;;;;;;5093315;28;20077;-62